createdAt,value
2023-04-06T00:00:53.494Z,0.00
2023-04-06T00:01:53.483Z,0.00
2023-04-06T00:02:53.538Z,0.00
2023-04-06T00:03:53.489Z,0.00
2023-04-06T00:04:53.450Z,0.00
2023-04-06T00:05:53.466Z,0.00
2023-04-06T00:06:53.428Z,0.00
2023-04-06T00:07:53.421Z,0.00
2023-04-06T00:08:53.410Z,0.00
2023-04-06T00:09:53.401Z,0.00
2023-04-06T00:10:53.390Z,0.00
2023-04-06T00:11:53.378Z,0.00
2023-04-06T00:12:53.377Z,0.00
2023-04-06T00:13:53.356Z,0.00
2023-04-06T00:14:53.359Z,0.00
2023-04-06T00:15:53.339Z,0.00
2023-04-06T00:16:53.363Z,0.00
2023-04-06T00:17:53.369Z,0.00
2023-04-06T00:18:53.315Z,0.00
2023-04-06T00:19:53.295Z,0.00
2023-04-06T00:20:53.292Z,0.00
2023-04-06T00:21:53.340Z,0.00
2023-04-06T00:22:53.265Z,0.00
2023-04-06T00:23:53.255Z,0.00
2023-04-06T00:24:53.250Z,0.00
2023-04-06T00:25:53.246Z,0.00
2023-04-06T00:26:53.233Z,0.00
2023-04-06T00:27:53.233Z,0.00
2023-04-06T00:28:53.221Z,0.00
2023-04-06T00:29:53.196Z,0.00
2023-04-06T00:30:53.192Z,0.00
2023-04-06T00:31:53.230Z,0.00
2023-04-06T00:32:53.208Z,0.00
2023-04-06T00:33:53.162Z,0.00
2023-04-06T00:34:53.150Z,0.00
2023-04-06T00:35:53.235Z,0.00
2023-04-06T00:36:53.137Z,0.00
2023-04-06T00:37:53.123Z,0.00
2023-04-06T00:38:53.112Z,0.00
2023-04-06T00:39:53.124Z,0.00
2023-04-06T00:40:53.088Z,0.00
2023-04-06T00:41:53.085Z,0.00
2023-04-06T00:42:53.086Z,0.00
2023-04-06T00:43:53.087Z,0.00
2023-04-06T00:44:53.055Z,0.00
2023-04-06T00:45:53.074Z,0.00
2023-04-06T00:46:53.039Z,0.00
2023-04-06T00:47:53.086Z,0.00
2023-04-06T00:48:53.022Z,0.00
2023-04-06T00:49:53.005Z,0.00
2023-04-06T00:50:52.989Z,0.00
2023-04-06T00:51:52.984Z,0.00
2023-04-06T00:52:52.977Z,0.00
2023-04-06T00:53:52.964Z,0.00
2023-04-06T00:54:52.955Z,0.00
2023-04-06T00:55:52.943Z,0.00
2023-04-06T00:56:52.955Z,0.00
2023-04-06T00:57:52.920Z,0.00
2023-04-06T00:58:52.982Z,0.00
2023-04-06T00:59:52.898Z,0.00
2023-04-06T01:00:52.896Z,0.00
2023-04-06T01:01:52.920Z,0.00
2023-04-06T01:02:52.889Z,0.00
2023-04-06T01:03:52.866Z,0.00
2023-04-06T01:04:52.873Z,0.00
2023-04-06T01:05:52.979Z,0.00
2023-04-06T01:06:52.829Z,0.00
2023-04-06T01:07:52.836Z,0.00
2023-04-06T01:08:52.809Z,0.00
2023-04-06T01:09:52.806Z,0.00
2023-04-06T01:10:52.795Z,0.00
2023-04-06T01:11:52.797Z,0.00
2023-04-06T01:12:52.774Z,0.00
2023-04-06T01:13:52.782Z,0.00
2023-04-06T01:14:52.758Z,0.00
2023-04-06T01:15:52.799Z,0.00
2023-04-06T01:16:52.741Z,0.00
2023-04-06T01:17:52.807Z,0.00
2023-04-06T01:18:52.722Z,0.00
2023-04-06T01:19:52.701Z,0.00
2023-04-06T01:20:52.711Z,0.00
2023-04-06T01:21:52.710Z,0.00
2023-04-06T01:22:52.693Z,0.00
2023-04-06T01:23:52.677Z,0.00
2023-04-06T01:24:52.652Z,0.00
2023-04-06T01:25:52.636Z,0.00
2023-04-06T01:26:52.653Z,0.00
2023-04-06T01:27:52.623Z,0.00
2023-04-06T01:28:52.610Z,0.00
2023-04-06T01:29:52.597Z,0.00
2023-04-06T01:30:52.599Z,0.00
2023-04-06T01:31:52.653Z,0.00
2023-04-06T01:32:52.631Z,0.00
2023-04-06T01:33:52.568Z,0.00
2023-04-06T01:34:52.580Z,0.00
2023-04-06T01:35:52.594Z,0.00
2023-04-06T01:36:52.542Z,0.00
2023-04-06T01:37:52.512Z,0.00
2023-04-06T01:38:52.509Z,0.00
2023-04-06T01:39:52.516Z,0.00
2023-04-06T01:40:52.489Z,0.00
2023-04-06T01:41:52.529Z,0.00
2023-04-06T01:42:52.464Z,0.00
2023-04-06T01:43:52.449Z,0.00
2023-04-06T01:44:52.444Z,0.00
2023-04-06T01:45:52.445Z,0.00
2023-04-06T01:46:52.466Z,0.00
2023-04-06T01:47:52.437Z,0.00
2023-04-06T01:48:52.433Z,0.00
2023-04-06T01:49:52.411Z,0.00
2023-04-06T01:50:52.382Z,0.00
2023-04-06T01:51:52.376Z,0.00
2023-04-06T01:52:52.373Z,0.00
2023-04-06T01:53:52.377Z,0.00
2023-04-06T01:54:52.339Z,0.00
2023-04-06T01:55:52.345Z,0.00
2023-04-06T01:56:52.348Z,0.00
2023-04-06T01:57:52.331Z,0.00
2023-04-06T01:58:52.316Z,0.00
2023-04-06T01:59:52.288Z,0.00
2023-04-06T02:00:52.352Z,0.00
2023-04-06T02:01:52.328Z,0.00
2023-04-06T02:02:52.293Z,0.00
2023-04-06T02:03:52.264Z,0.00
2023-04-06T02:04:52.244Z,0.00
2023-04-06T02:05:52.282Z,0.00
2023-04-06T02:06:52.241Z,0.00
2023-04-06T02:07:52.221Z,0.00
2023-04-06T02:08:52.200Z,0.00
2023-04-06T02:09:52.189Z,0.00
2023-04-06T02:10:52.186Z,0.00
2023-04-06T02:11:52.168Z,0.00
2023-04-06T02:12:52.157Z,0.00
2023-04-06T02:13:52.141Z,0.00
2023-04-06T02:14:52.151Z,0.00
2023-04-06T02:15:52.127Z,0.00
2023-04-06T02:16:52.169Z,0.00
2023-04-06T02:17:52.116Z,0.00
2023-04-06T02:18:52.099Z,0.00
2023-04-06T02:19:52.110Z,0.00
2023-04-06T02:20:52.070Z,0.00
2023-04-06T02:21:52.067Z,0.00
2023-04-06T02:22:52.055Z,0.00
2023-04-06T02:23:52.064Z,0.00
2023-04-06T02:24:52.030Z,0.00
2023-04-06T02:25:52.015Z,0.00
2023-04-06T02:26:52.005Z,0.00
2023-04-06T02:27:51.998Z,0.00
2023-04-06T02:28:51.986Z,0.00
2023-04-06T02:29:51.976Z,0.00
2023-04-06T02:30:51.981Z,0.00
2023-04-06T02:31:52.024Z,0.00
2023-04-06T02:32:52.059Z,0.00
2023-04-06T02:33:51.942Z,0.00
2023-04-06T02:34:51.920Z,0.00
2023-04-06T02:35:51.937Z,0.00
2023-04-06T02:36:51.910Z,0.00
2023-04-06T02:37:51.902Z,0.00
2023-04-06T02:38:51.901Z,0.00
2023-04-06T02:39:51.875Z,0.00
2023-04-06T02:40:51.868Z,0.00
2023-04-06T02:41:51.853Z,0.00
2023-04-06T02:42:51.844Z,0.00
2023-04-06T02:43:51.828Z,0.00
2023-04-06T02:44:51.817Z,0.00
2023-04-06T02:45:51.868Z,0.00
2023-04-06T02:46:51.794Z,0.00
2023-04-06T02:47:51.830Z,0.00
2023-04-06T02:48:51.777Z,0.00
2023-04-06T02:49:51.779Z,0.00
2023-04-06T02:50:51.768Z,0.00
2023-04-06T02:51:51.754Z,0.00
2023-04-06T02:52:51.732Z,0.00
2023-04-06T02:53:51.725Z,0.00
2023-04-06T02:54:51.710Z,0.00
2023-04-06T02:55:51.702Z,0.00
2023-04-06T02:56:51.702Z,0.00
2023-04-06T02:57:51.697Z,0.00
2023-04-06T02:58:51.724Z,0.00
2023-04-06T02:59:51.660Z,0.00
2023-04-06T03:00:51.660Z,0.00
2023-04-06T03:01:51.735Z,0.00
2023-04-06T03:02:51.757Z,0.00
2023-04-06T03:03:51.704Z,0.00
2023-04-06T03:04:51.602Z,0.00
2023-04-06T03:05:51.605Z,0.00
2023-04-06T03:06:51.610Z,0.00
2023-04-06T03:07:51.633Z,0.00
2023-04-06T03:08:51.582Z,0.00
2023-04-06T03:09:51.596Z,0.00
2023-04-06T03:10:51.543Z,0.00
2023-04-06T03:11:51.540Z,0.00
2023-04-06T03:12:51.556Z,0.00
2023-04-06T03:13:51.535Z,0.00
2023-04-06T03:14:51.531Z,0.00
2023-04-06T03:15:51.563Z,0.00
2023-04-06T03:16:51.537Z,0.00
2023-04-06T03:17:51.498Z,0.00
2023-04-06T03:18:51.456Z,0.00
2023-04-06T03:19:51.452Z,0.00
2023-04-06T03:20:51.474Z,0.00
2023-04-06T03:21:51.424Z,0.00
2023-04-06T03:22:51.417Z,0.00
2023-04-06T03:23:51.398Z,0.00
2023-04-06T03:24:51.394Z,0.00
2023-04-06T03:25:51.406Z,0.00
2023-04-06T03:26:51.362Z,0.00
2023-04-06T03:27:51.429Z,0.00
2023-04-06T03:28:51.360Z,0.00
2023-04-06T03:29:51.392Z,0.00
2023-04-06T03:30:51.345Z,0.00
2023-04-06T03:31:51.366Z,0.00
2023-04-06T03:32:51.432Z,0.00
2023-04-06T03:33:51.332Z,0.00
2023-04-06T03:34:51.319Z,0.00
2023-04-06T03:35:51.305Z,0.00
2023-04-06T03:36:59.837Z,0.00
2023-04-06T03:37:51.308Z,0.00
2023-04-06T03:38:51.234Z,0.00
2023-04-06T03:39:51.244Z,0.00
2023-04-06T03:40:51.220Z,0.00
2023-04-06T03:41:51.210Z,0.00
2023-04-06T03:42:51.201Z,0.00
2023-04-06T03:43:51.221Z,0.00
2023-04-06T03:44:51.180Z,0.00
2023-04-06T03:45:51.163Z,0.00
2023-04-06T03:46:51.214Z,0.00
2023-04-06T03:47:51.238Z,0.00
2023-04-06T03:48:51.147Z,0.00
2023-04-06T03:49:51.132Z,0.00
2023-04-06T03:50:51.129Z,0.00
2023-04-06T03:51:51.126Z,0.00
2023-04-06T03:52:51.114Z,0.00
2023-04-06T03:53:51.102Z,0.00
2023-04-06T03:54:51.069Z,0.00
2023-04-06T03:55:51.074Z,0.00
2023-04-06T03:56:51.076Z,0.00
2023-04-06T03:57:51.058Z,0.00
2023-04-06T03:58:51.088Z,0.00
2023-04-06T03:59:51.006Z,0.00
2023-04-06T04:00:51.003Z,0.00
2023-04-06T04:01:51.066Z,0.00
2023-04-06T04:02:51.051Z,0.00
2023-04-06T04:03:51.670Z,0.00
2023-04-06T04:04:51.026Z,0.00
2023-04-06T04:05:50.958Z,0.00
2023-04-06T04:06:50.956Z,0.00
2023-04-06T04:07:50.950Z,0.00
2023-04-06T04:08:50.914Z,0.00
2023-04-06T04:09:50.928Z,0.00
2023-04-06T04:10:50.912Z,0.00
2023-04-06T04:11:50.885Z,0.00
2023-04-06T04:12:50.872Z,0.00
2023-04-06T04:13:50.882Z,0.00
2023-04-06T04:14:50.856Z,0.00
2023-04-06T04:15:50.842Z,0.00
2023-04-06T04:16:50.862Z,0.00
2023-04-06T04:17:50.868Z,0.00
2023-04-06T04:18:50.809Z,0.00
2023-04-06T04:19:50.799Z,0.00
2023-04-06T04:20:50.802Z,0.00
2023-04-06T04:21:50.772Z,0.00
2023-04-06T04:22:50.778Z,0.00
2023-04-06T04:23:50.790Z,0.00
2023-04-06T04:24:50.749Z,0.00
2023-04-06T04:25:50.730Z,0.00
2023-04-06T04:26:50.721Z,0.00
2023-04-06T04:27:50.721Z,0.00
2023-04-06T04:28:50.702Z,0.00
2023-04-06T04:29:53.022Z,0.00
2023-04-06T04:30:50.672Z,0.00
2023-04-06T04:31:50.770Z,0.00
2023-04-06T04:32:50.698Z,0.00
2023-04-06T04:33:50.658Z,0.00
2023-04-06T04:34:50.652Z,4.00
2023-04-06T04:35:50.687Z,0.00
2023-04-06T04:36:50.617Z,0.00
2023-04-06T04:37:50.620Z,4.00
2023-04-06T04:38:50.602Z,0.00
2023-04-06T04:39:50.590Z,4.00
2023-04-06T04:40:50.576Z,4.00
2023-04-06T04:41:50.569Z,4.00
2023-04-06T04:42:50.555Z,8.00
2023-04-06T04:43:50.545Z,8.00
2023-04-06T04:44:50.530Z,8.00
2023-04-06T04:45:50.583Z,8.00
2023-04-06T04:46:50.517Z,12.00
2023-04-06T04:47:50.513Z,12.00
2023-04-06T04:48:50.492Z,16.00
2023-04-06T04:49:50.478Z,12.00
2023-04-06T04:50:50.465Z,16.00
2023-04-06T04:51:50.482Z,16.00
2023-04-06T04:52:50.446Z,20.00
2023-04-06T04:53:50.431Z,24.00
2023-04-06T04:54:50.424Z,28.00
2023-04-06T04:55:50.415Z,32.00
2023-04-06T04:56:50.402Z,36.00
2023-04-06T04:57:50.392Z,36.00
2023-04-06T04:58:50.393Z,36.00
2023-04-06T04:59:50.365Z,44.00
2023-04-06T05:00:50.356Z,48.00
2023-04-06T05:01:55.446Z,52.00
2023-04-06T05:02:50.424Z,56.00
2023-04-06T05:03:50.421Z,60.00
2023-04-06T05:04:50.330Z,68.00
2023-04-06T05:05:50.313Z,72.00
2023-04-06T05:06:50.294Z,76.00
2023-04-06T05:07:50.276Z,80.00
2023-04-06T05:08:50.274Z,84.00
2023-04-06T05:09:50.272Z,92.00
2023-04-06T05:10:50.247Z,96.00
2023-04-06T05:11:50.237Z,104.00
2023-04-06T05:12:50.231Z,108.00
2023-04-06T05:13:50.212Z,112.00
2023-04-06T05:14:50.210Z,120.00
2023-04-06T05:15:50.223Z,128.00
2023-04-06T05:16:50.180Z,132.00
2023-04-06T05:17:50.226Z,140.00
2023-04-06T05:18:50.161Z,148.00
2023-04-06T05:19:50.153Z,156.00
2023-04-06T05:20:50.139Z,160.00
2023-04-06T05:21:50.166Z,172.00
2023-04-06T05:22:50.134Z,176.00
2023-04-06T05:23:50.103Z,188.00
2023-04-06T05:24:50.088Z,196.00
2023-04-06T05:25:50.088Z,204.00
2023-04-06T05:26:50.072Z,216.00
2023-04-06T05:27:50.055Z,220.00
2023-04-06T05:28:50.098Z,224.00
2023-04-06T05:29:50.061Z,228.00
2023-04-06T05:30:50.041Z,236.00
2023-04-06T05:31:50.066Z,240.00
2023-04-06T05:32:50.048Z,248.00
2023-04-06T05:33:49.998Z,256.00
2023-04-06T05:34:49.983Z,268.00
2023-04-06T05:35:49.989Z,276.00
2023-04-06T05:36:49.957Z,292.00
2023-04-06T05:37:49.941Z,300.00
2023-04-06T05:38:49.937Z,308.00
2023-04-06T05:39:49.944Z,312.00
2023-04-06T05:40:49.932Z,320.00
2023-04-06T05:41:49.898Z,328.00
2023-04-06T05:42:49.887Z,336.00
2023-04-06T05:43:49.883Z,344.00
2023-04-06T05:44:49.869Z,352.00
2023-04-06T05:45:49.867Z,360.00
2023-04-06T05:46:49.842Z,368.00
2023-04-06T05:47:49.855Z,376.00
2023-04-06T05:48:49.815Z,388.00
2023-04-06T05:49:49.813Z,392.00
2023-04-06T05:50:49.797Z,400.00
2023-04-06T05:51:49.803Z,408.00
2023-04-06T05:52:49.777Z,412.00
2023-04-06T05:53:49.767Z,420.00
2023-04-06T05:54:49.748Z,428.00
2023-04-06T05:55:49.765Z,436.00
2023-04-06T05:56:49.726Z,448.00
2023-04-06T05:57:49.738Z,464.00
2023-04-06T05:58:49.745Z,472.00
2023-04-06T05:59:49.704Z,480.00
2023-04-06T06:00:49.689Z,476.00
2023-04-06T06:01:49.697Z,480.00
2023-04-06T06:02:49.713Z,476.00
2023-04-06T06:03:49.649Z,480.00
2023-04-06T06:04:49.691Z,484.00
2023-04-06T06:05:49.630Z,488.00
2023-04-06T06:06:49.618Z,492.00
2023-04-06T06:07:49.607Z,500.00
2023-04-06T06:08:49.617Z,504.00
2023-04-06T06:09:49.578Z,508.00
2023-04-06T06:10:49.567Z,512.00
2023-04-06T06:11:49.576Z,516.00
2023-04-06T06:12:49.553Z,524.00
2023-04-06T06:13:49.556Z,520.00
2023-04-06T06:14:49.534Z,524.00
2023-04-06T06:15:49.538Z,528.00
2023-04-06T06:16:49.510Z,540.00
2023-04-06T06:17:49.503Z,548.00
2023-04-06T06:18:49.484Z,556.00
2023-04-06T06:19:49.480Z,556.00
2023-04-06T06:20:49.462Z,568.00
2023-04-06T06:21:49.455Z,580.00
2023-04-06T06:22:49.434Z,588.00
2023-04-06T06:23:49.426Z,596.00
2023-04-06T06:24:49.416Z,588.00
2023-04-06T06:25:49.422Z,596.00
2023-04-06T06:26:49.406Z,596.00
2023-04-06T06:27:49.386Z,604.00
2023-04-06T06:28:49.368Z,612.00
2023-04-06T06:29:49.371Z,600.00
2023-04-06T06:30:49.355Z,588.00
2023-04-06T06:31:49.435Z,600.00
2023-04-06T06:32:49.369Z,616.00
2023-04-06T06:33:49.321Z,628.00
2023-04-06T06:34:49.312Z,644.00
2023-04-06T06:35:49.322Z,664.00
2023-04-06T06:36:51.641Z,676.00
2023-04-06T06:37:49.273Z,704.00
2023-04-06T06:38:49.281Z,724.00
2023-04-06T06:39:49.280Z,728.00
2023-04-06T06:40:49.254Z,720.00
2023-04-06T06:41:49.460Z,700.00
2023-04-06T06:42:49.227Z,664.00
2023-04-06T06:43:49.231Z,696.00
2023-04-06T06:44:49.206Z,704.00
2023-04-06T06:45:49.245Z,708.00
2023-04-06T06:46:49.181Z,708.00
2023-04-06T06:47:49.277Z,712.00
2023-04-06T06:48:49.159Z,720.00
2023-04-06T06:49:49.171Z,728.00
2023-04-06T06:50:49.140Z,736.00
2023-04-06T06:51:49.151Z,732.00
2023-04-06T06:52:49.135Z,740.00
2023-04-06T06:53:49.120Z,744.00
2023-04-06T06:54:49.098Z,756.00
2023-04-06T06:55:49.089Z,760.00
2023-04-06T06:56:49.099Z,756.00
2023-04-06T06:57:49.108Z,768.00
2023-04-06T06:58:49.136Z,772.00
2023-04-06T06:59:49.075Z,784.00
2023-04-06T07:00:49.045Z,788.00
2023-04-06T07:01:49.033Z,796.00
2023-04-06T07:02:49.041Z,808.00
2023-04-06T07:03:49.069Z,816.00
2023-04-06T07:04:49.215Z,824.00
2023-04-06T07:05:48.980Z,828.00
2023-04-06T07:06:48.966Z,828.00
2023-04-06T07:07:48.962Z,832.00
2023-04-06T07:08:48.963Z,828.00
2023-04-06T07:09:48.951Z,820.00
2023-04-06T07:10:48.953Z,828.00
2023-04-06T07:11:48.932Z,836.00
2023-04-06T07:12:48.914Z,820.00
2023-04-06T07:13:48.892Z,816.00
2023-04-06T07:14:48.891Z,812.00
2023-04-06T07:15:48.891Z,828.00
2023-04-06T07:16:48.982Z,844.00
2023-04-06T07:17:48.897Z,860.00
2023-04-06T07:18:48.873Z,872.00
2023-04-06T07:19:48.828Z,880.00
2023-04-06T07:20:48.842Z,884.00
2023-04-06T07:21:48.807Z,892.00
2023-04-06T07:22:48.813Z,904.00
2023-04-06T07:23:48.805Z,904.00
2023-04-06T07:24:48.788Z,916.00
2023-04-06T07:25:48.771Z,932.00
2023-04-06T07:26:48.751Z,944.00
2023-04-06T07:27:48.763Z,948.00
2023-04-06T07:28:48.742Z,960.00
2023-04-06T07:29:48.731Z,968.00
2023-04-06T07:30:48.720Z,980.00
2023-04-06T07:31:48.834Z,992.00
2023-04-06T07:32:48.737Z,1000.00
2023-04-06T07:33:48.691Z,1000.00
2023-04-06T07:34:48.672Z,1004.00
2023-04-06T07:35:48.701Z,1008.00
2023-04-06T07:36:48.660Z,1016.00
2023-04-06T07:37:48.644Z,1024.00
2023-04-06T07:38:48.636Z,1036.00
2023-04-06T07:39:48.618Z,1036.00
2023-04-06T07:40:48.617Z,1044.00
2023-04-06T07:41:48.608Z,1064.00
2023-04-06T07:42:48.593Z,1080.00
2023-04-06T07:43:48.609Z,1088.00
2023-04-06T07:44:48.579Z,1104.00
2023-04-06T07:45:48.567Z,1120.00
2023-04-06T07:46:48.557Z,1132.00
2023-04-06T07:47:48.562Z,1152.00
2023-04-06T07:48:48.535Z,1164.00
2023-04-06T07:49:48.528Z,1184.00
2023-04-06T07:50:48.525Z,1208.00
2023-04-06T07:51:48.498Z,1224.00
2023-04-06T07:52:48.496Z,1240.00
2023-04-06T07:53:48.502Z,1256.00
2023-04-06T07:54:48.491Z,1288.00
2023-04-06T07:55:48.459Z,1296.00
2023-04-06T07:56:48.477Z,1300.00
2023-04-06T07:57:48.450Z,1324.00
2023-04-06T07:58:48.443Z,1372.00
2023-04-06T07:59:48.429Z,1412.00
2023-04-06T08:00:48.434Z,1508.00
2023-04-06T08:01:48.410Z,1676.00
2023-04-06T08:02:48.550Z,1908.00
2023-04-06T08:03:48.633Z,2148.00
2023-04-06T08:04:48.433Z,2360.00
2023-04-06T08:05:48.371Z,2508.00
2023-04-06T08:06:48.361Z,2616.00
2023-04-06T08:07:48.355Z,2688.00
2023-04-06T08:08:48.358Z,2740.00
2023-04-06T08:09:48.330Z,2848.00
2023-04-06T08:10:48.333Z,2880.00
2023-04-06T08:11:48.321Z,2804.00
2023-04-06T08:12:48.344Z,2684.00
2023-04-06T08:13:48.408Z,2612.00
2023-04-06T08:14:48.297Z,2576.00
2023-04-06T08:15:48.385Z,2544.00
2023-04-06T08:16:48.283Z,2536.00
2023-04-06T08:17:48.327Z,2512.00
2023-04-06T08:18:48.251Z,2492.00
2023-04-06T08:19:48.279Z,2432.00
2023-04-06T08:20:48.245Z,2432.00
2023-04-06T08:21:48.244Z,2544.00
2023-04-06T08:22:48.232Z,2628.00
2023-04-06T08:23:48.215Z,2672.00
2023-04-06T08:24:48.209Z,2640.00
2023-04-06T08:25:48.197Z,2632.00
2023-04-06T08:26:48.195Z,2576.00
2023-04-06T08:27:48.217Z,2476.00
2023-04-06T08:28:48.160Z,2308.00
2023-04-06T08:29:48.160Z,2148.00
2023-04-06T08:30:48.176Z,2068.00
2023-04-06T08:31:48.137Z,2056.00
2023-04-06T08:32:48.150Z,2076.00
2023-04-06T08:33:48.160Z,2128.00
2023-04-06T08:34:48.133Z,2204.00
2023-04-06T08:35:48.129Z,2252.00
2023-04-06T08:36:48.103Z,2216.00
2023-04-06T08:37:48.105Z,2148.00
2023-04-06T08:38:48.086Z,2096.00
2023-04-06T08:39:48.072Z,2092.00
2023-04-06T08:40:48.079Z,2104.00
2023-04-06T08:41:48.064Z,2028.00
2023-04-06T08:42:48.048Z,2048.00
2023-04-06T08:43:48.040Z,2024.00
2023-04-06T08:44:48.027Z,2092.00
2023-04-06T08:45:48.026Z,2116.00
2023-04-06T08:46:48.045Z,2148.00
2023-04-06T08:47:48.113Z,2108.00
2023-04-06T08:48:47.997Z,2096.00
2023-04-06T08:49:47.990Z,2044.00
2023-04-06T08:50:47.993Z,2120.00
2023-04-06T08:51:47.984Z,2236.00
2023-04-06T08:52:47.990Z,2276.00
2023-04-06T08:53:47.961Z,2360.00
2023-04-06T08:54:47.964Z,2416.00
2023-04-06T08:55:47.958Z,2456.00
2023-04-06T08:56:47.950Z,2444.00
2023-04-06T08:57:47.937Z,2388.00
2023-04-06T08:58:47.925Z,2400.00
2023-04-06T08:59:47.923Z,2420.00
2023-04-06T09:00:47.908Z,2404.00
2023-04-06T09:01:48.012Z,2356.00
2023-04-06T09:02:47.959Z,2384.00
2023-04-06T09:03:48.048Z,2360.00
2023-04-06T09:04:47.921Z,2276.00
2023-04-06T09:05:47.881Z,2232.00
2023-04-06T09:06:47.866Z,2180.00
2023-04-06T09:07:47.860Z,2216.00
2023-04-06T09:08:47.844Z,2276.00
2023-04-06T09:09:47.847Z,2332.00
2023-04-06T09:10:47.834Z,2372.00
2023-04-06T09:11:47.827Z,2432.00
2023-04-06T09:12:47.837Z,2484.00
2023-04-06T09:13:47.814Z,2488.00
2023-04-06T09:14:47.813Z,2604.00
2023-04-06T09:15:47.849Z,2616.00
2023-04-06T09:16:47.821Z,2692.00
2023-04-06T09:17:47.815Z,2716.00
2023-04-06T09:18:47.781Z,2728.00
2023-04-06T09:19:47.765Z,2844.00
2023-04-06T09:20:47.750Z,2992.00
2023-04-06T09:21:47.753Z,3032.00
2023-04-06T09:22:47.741Z,3072.00
2023-04-06T09:23:47.772Z,3128.00
2023-04-06T09:24:47.729Z,3096.00
2023-04-06T09:25:47.725Z,3276.00
2023-04-06T09:26:47.729Z,3396.00
2023-04-06T09:27:47.701Z,3360.00
2023-04-06T09:28:47.703Z,3452.00
2023-04-06T09:29:47.701Z,3480.00
2023-04-06T09:30:47.712Z,3244.00
2023-04-06T09:31:47.704Z,3228.00
2023-04-06T09:32:47.722Z,3460.00
2023-04-06T09:33:47.700Z,3544.00
2023-04-06T09:34:49.978Z,3576.00
2023-04-06T09:35:47.707Z,3720.00
2023-04-06T09:36:47.645Z,3812.00
2023-04-06T09:37:47.645Z,3812.00
2023-04-06T09:38:47.641Z,3856.00
2023-04-06T09:39:47.659Z,3912.00
2023-04-06T09:40:59.694Z,4048.00
2023-04-06T09:41:47.690Z,4032.00
2023-04-06T09:42:47.602Z,4088.00
2023-04-06T09:43:47.595Z,4268.00
2023-04-06T09:44:47.598Z,4280.00
2023-04-06T09:45:47.586Z,4460.00
2023-04-06T09:46:59.897Z,4604.00
2023-04-06T09:47:47.707Z,4700.00
2023-04-06T09:48:47.573Z,4900.00
2023-04-06T09:49:47.565Z,5196.00
2023-04-06T09:50:47.593Z,6796.00
2023-04-06T09:51:47.554Z,11016.00
2023-04-06T09:52:47.545Z,13140.00
2023-04-06T09:53:47.543Z,13404.00
2023-04-06T09:54:47.523Z,12900.00
2023-04-06T09:55:47.557Z,10936.00
2023-04-06T09:56:47.526Z,10332.00
2023-04-06T09:57:47.517Z,9968.00
2023-04-06T09:58:47.539Z,9260.00
2023-04-06T09:59:47.566Z,8552.00
2023-04-06T10:00:47.549Z,6404.00
2023-04-06T10:01:47.502Z,6680.00
2023-04-06T10:02:47.640Z,6932.00
2023-04-06T10:03:47.570Z,6516.00
2023-04-06T10:04:47.488Z,7416.00
2023-04-06T10:05:47.482Z,7100.00
2023-04-06T10:06:47.464Z,6696.00
2023-04-06T10:07:59.689Z,7524.00
2023-04-06T10:08:47.490Z,7876.00
2023-04-06T10:09:47.465Z,8532.00
2023-04-06T10:10:47.459Z,7500.00
2023-04-06T10:11:47.441Z,6852.00
2023-04-06T10:12:47.483Z,6140.00
2023-04-06T10:13:47.432Z,6116.00
2023-04-06T10:14:47.428Z,6552.00
2023-04-06T10:15:47.440Z,5836.00
2023-04-06T10:16:47.482Z,5860.00
2023-04-06T10:17:47.506Z,5696.00
2023-04-06T10:18:47.399Z,6600.00
2023-04-06T10:19:47.403Z,5980.00
2023-04-06T10:20:47.406Z,7160.00
2023-04-06T10:21:47.420Z,8832.00
2023-04-06T10:22:47.390Z,9932.00
2023-04-06T10:23:47.381Z,9752.00
2023-04-06T10:24:47.407Z,10768.00
2023-04-06T10:25:47.401Z,10500.00
2023-04-06T10:26:47.372Z,10968.00
2023-04-06T10:27:47.370Z,11268.00
2023-04-06T10:28:47.368Z,9984.00
2023-04-06T10:29:47.361Z,9124.00
2023-04-06T10:30:47.364Z,8172.00
2023-04-06T10:31:47.372Z,8796.00
2023-04-06T10:32:48.256Z,9268.00
2023-04-06T10:33:47.346Z,10116.00
2023-04-06T10:34:47.340Z,9772.00
2023-04-06T10:35:47.422Z,9964.00
2023-04-06T10:36:47.335Z,9512.00
2023-04-06T10:37:47.321Z,9364.00
2023-04-06T10:38:47.342Z,8932.00
2023-04-06T10:39:47.321Z,8984.00
2023-04-06T10:40:47.322Z,8296.00
2023-04-06T10:41:47.321Z,5912.00
2023-04-06T10:42:47.304Z,7460.00
2023-04-06T10:43:48.675Z,7192.00
2023-04-06T10:44:47.299Z,6876.00
2023-04-06T10:45:47.355Z,5860.00
2023-04-06T10:46:47.299Z,6768.00
2023-04-06T10:47:47.300Z,6924.00
2023-04-06T10:48:47.295Z,7288.00
2023-04-06T10:49:47.284Z,7736.00
2023-04-06T10:50:47.298Z,7260.00
2023-04-06T10:51:47.283Z,5460.00
2023-04-06T10:52:47.275Z,5540.00
2023-04-06T10:53:47.260Z,4580.00
2023-04-06T10:54:49.752Z,3976.00
2023-04-06T10:55:47.282Z,3992.00
2023-04-06T10:56:47.257Z,3612.00
2023-04-06T10:57:47.261Z,3556.00
2023-04-06T10:58:47.241Z,3728.00
2023-04-06T10:59:47.246Z,3696.00
2023-04-06T11:00:50.136Z,3624.00
2023-04-06T11:01:47.375Z,3776.00
2023-04-06T11:02:47.296Z,3856.00
2023-04-06T11:03:47.311Z,3972.00
2023-04-06T11:04:47.270Z,4072.00
2023-04-06T11:05:48.075Z,4216.00
2023-04-06T11:06:47.209Z,4288.00
2023-04-06T11:07:47.201Z,4300.00
2023-04-06T11:08:47.193Z,4232.00
2023-04-06T11:10:00.271Z,4380.00
2023-04-06T11:10:47.207Z,4492.00
2023-04-06T11:11:47.182Z,4440.00
2023-04-06T11:12:47.224Z,4284.00
2023-04-06T11:13:47.172Z,4100.00
2023-04-06T11:14:47.170Z,4000.00
2023-04-06T11:15:47.179Z,3932.00
2023-04-06T11:16:47.234Z,3864.00
2023-04-06T11:17:47.182Z,3784.00
2023-04-06T11:18:47.144Z,3664.00
2023-04-06T11:19:47.147Z,3648.00
2023-04-06T11:20:47.147Z,3288.00
2023-04-06T11:21:47.135Z,3236.00
2023-04-06T11:22:47.133Z,3444.00
2023-04-06T11:23:47.137Z,3512.00
2023-04-06T11:24:47.129Z,3504.00
2023-04-06T11:25:47.125Z,3488.00
2023-04-06T11:26:47.136Z,3268.00
2023-04-06T11:27:47.117Z,3152.00
2023-04-06T11:28:47.118Z,3032.00
2023-04-06T11:29:47.108Z,2960.00
2023-04-06T11:30:47.213Z,2964.00
2023-04-06T11:31:47.092Z,2932.00
2023-04-06T11:32:47.192Z,2900.00
2023-04-06T11:33:47.095Z,2856.00
2023-04-06T11:34:47.080Z,2852.00
2023-04-06T11:35:47.090Z,2868.00
2023-04-06T11:36:47.084Z,2876.00
2023-04-06T11:37:47.080Z,2872.00
2023-04-06T11:38:47.070Z,2820.00
2023-04-06T11:39:47.051Z,2772.00
2023-04-06T11:40:47.048Z,2736.00
2023-04-06T11:41:47.052Z,2672.00
2023-04-06T11:42:47.039Z,2648.00
2023-04-06T11:43:47.038Z,2620.00
2023-04-06T11:44:47.212Z,2600.00
2023-04-06T11:45:47.030Z,2604.00
2023-04-06T11:46:47.084Z,2652.00
2023-04-06T11:47:47.037Z,2700.00
2023-04-06T11:48:47.095Z,2776.00
2023-04-06T11:49:47.018Z,2836.00
2023-04-06T11:50:47.008Z,2900.00
2023-04-06T11:51:46.999Z,2952.00
2023-04-06T11:52:46.994Z,2984.00
2023-04-06T11:53:47.018Z,3016.00
2023-04-06T11:54:46.979Z,3068.00
2023-04-06T11:55:46.981Z,3128.00
2023-04-06T11:56:46.976Z,3192.00
2023-04-06T11:57:46.984Z,3284.00
2023-04-06T11:58:46.965Z,3316.00
2023-04-06T11:59:46.998Z,3292.00
2023-04-06T12:00:47.692Z,3220.00
2023-04-06T12:01:46.949Z,3188.00
2023-04-06T12:02:47.028Z,3128.00
2023-04-06T12:03:47.186Z,3128.00
2023-04-06T12:04:47.073Z,3160.00
2023-04-06T12:05:46.939Z,3164.00
2023-04-06T12:06:46.929Z,3200.00
2023-04-06T12:07:46.931Z,3224.00
2023-04-06T12:08:46.925Z,3248.00
2023-04-06T12:09:46.911Z,3260.00
2023-04-06T12:10:46.915Z,3260.00
2023-04-06T12:11:46.937Z,3228.00
2023-04-06T12:12:46.903Z,3168.00
2023-04-06T12:13:46.912Z,3064.00
2023-04-06T12:14:46.893Z,2944.00
2023-04-06T12:15:46.910Z,2832.00
2023-04-06T12:16:46.897Z,2760.00
2023-04-06T12:17:46.921Z,2720.00
2023-04-06T12:18:46.873Z,2720.00
2023-04-06T12:19:46.870Z,2764.00
2023-04-06T12:20:46.857Z,2788.00
2023-04-06T12:21:46.871Z,2844.00
2023-04-06T12:22:46.850Z,2888.00
2023-04-06T12:23:46.846Z,2920.00
2023-04-06T12:24:46.834Z,2956.00
2023-04-06T12:25:46.883Z,2996.00
2023-04-06T12:26:47.090Z,3092.00
2023-04-06T12:27:46.863Z,3204.00
2023-04-06T12:28:46.823Z,3332.00
2023-04-06T12:29:46.875Z,3444.00
2023-04-06T12:30:46.817Z,3496.00
2023-04-06T12:31:46.905Z,3524.00
2023-04-06T12:32:48.238Z,3476.00
2023-04-06T12:33:46.843Z,3408.00
2023-04-06T12:34:46.812Z,3336.00
2023-04-06T12:35:46.818Z,3204.00
2023-04-06T12:36:46.832Z,3128.00
2023-04-06T12:37:46.845Z,3092.00